createdAt,value
2022-08-12T00:00:50.119Z,2.30
2022-08-12T00:03:35.525Z,2.35
2022-08-12T00:06:22.141Z,2.22
2022-08-12T00:09:07.614Z,2.13
2022-08-12T00:11:53.409Z,2.30
2022-08-12T00:14:38.914Z,2.10
2022-08-12T00:17:24.235Z,2.30
2022-08-12T00:20:10.462Z,2.40
2022-08-12T00:22:59.169Z,2.67
2022-08-12T00:26:20.494Z,2.50
2022-08-12T00:29:08.862Z,2.47
2022-08-12T00:31:54.227Z,2.67
2022-08-12T00:34:39.764Z,2.70
2022-08-12T00:37:25.496Z,2.10
2022-08-12T00:40:13.649Z,2.50
2022-08-12T00:42:42.017Z,2.33
2022-08-12T00:45:09.692Z,2.50
2022-08-12T00:47:38.411Z,2.22
2022-08-12T00:50:06.734Z,2.22
2022-08-12T00:52:34.981Z,2.38
2022-08-12T00:55:04.345Z,2.33
2022-08-12T00:57:35.735Z,2.33
2022-08-12T01:00:32.127Z,2.20
2022-08-12T01:02:59.864Z,2.60
2022-08-12T01:05:45.347Z,2.25
2022-08-12T01:08:47.860Z,2.35
2022-08-12T01:11:32.726Z,2.60
2022-08-12T01:14:01.379Z,2.10
2022-08-12T01:16:29.207Z,2.13
2022-08-12T01:18:57.858Z,2.20
2022-08-12T01:21:27.269Z,2.58
2022-08-12T01:24:30.132Z,2.38
2022-08-12T01:26:56.762Z,2.30
2022-08-12T01:29:27.447Z,2.38
2022-08-12T01:31:59.122Z,2.15
2022-08-12T01:34:36.498Z,2.35
2022-08-12T01:37:07.161Z,2.15
2022-08-12T01:40:34.314Z,2.35
2022-08-12T01:42:51.045Z,2.40
2022-08-12T01:45:24.336Z,2.25
2022-08-12T01:48:23.799Z,2.40
2022-08-12T01:51:00.366Z,2.30
2022-08-12T01:53:50.952Z,2.33
2022-08-12T01:56:22.048Z,2.30
2022-08-12T01:59:12.141Z,2.25
2022-08-12T02:01:41.530Z,2.38
2022-08-12T02:04:42.543Z,2.22
2022-08-12T02:07:43.264Z,2.15
2022-08-12T02:10:50.565Z,2.20
2022-08-12T02:13:52.419Z,2.30
2022-08-12T02:16:51.060Z,2.22
2022-08-12T02:19:27.541Z,2.17
2022-08-12T02:22:21.515Z,2.10
2022-08-12T02:24:50.765Z,2.38
2022-08-12T02:27:19.778Z,2.15
2022-08-12T02:29:48.161Z,2.30
2022-08-12T02:32:15.129Z,2.15
2022-08-12T02:34:44.465Z,2.55
2022-08-12T02:37:15.316Z,2.40
2022-08-12T02:39:49.104Z,2.10
2022-08-12T02:42:19.062Z,2.50
2022-08-12T02:44:50.798Z,2.15
2022-08-12T02:47:59.161Z,2.17
2022-08-12T02:50:09.681Z,2.33
2022-08-12T02:52:37.419Z,2.40
2022-08-12T02:55:28.723Z,2.10
2022-08-12T02:58:01.019Z,2.35
2022-08-12T03:00:34.982Z,2.50
2022-08-12T03:03:05.590Z,2.05
2022-08-12T03:05:42.111Z,2.30
2022-08-12T03:08:20.199Z,2.50
2022-08-12T03:11:15.683Z,2.40
2022-08-12T03:13:46.790Z,2.28
2022-08-12T03:16:14.684Z,2.30
2022-08-12T03:18:46.361Z,2.25
2022-08-12T03:21:16.909Z,2.40
2022-08-12T03:23:45.788Z,2.63
2022-08-12T03:26:14.578Z,2.30
2022-08-12T03:28:51.144Z,2.30
2022-08-12T03:31:29.830Z,2.30
2022-08-12T03:34:08.908Z,2.30
2022-08-12T03:36:38.148Z,2.50
2022-08-12T03:39:16.895Z,2.40
2022-08-12T03:41:55.086Z,2.42
2022-08-12T03:44:56.611Z,2.42
2022-08-12T03:47:51.211Z,2.45
2022-08-12T03:50:38.095Z,2.42
2022-08-12T03:53:26.416Z,2.17
2022-08-12T03:56:11.962Z,2.20
2022-08-12T03:58:57.882Z,2.50
2022-08-12T04:01:26.805Z,2.30
2022-08-12T04:03:54.072Z,2.50
2022-08-12T04:06:34.323Z,2.97
2022-08-12T04:09:05.102Z,2.60
2022-08-12T04:12:00.102Z,2.70
2022-08-12T04:14:27.904Z,2.70
2022-08-12T04:16:57.309Z,2.67
2022-08-12T04:19:25.997Z,2.83
2022-08-12T04:22:02.955Z,2.70
2022-08-12T04:24:35.883Z,2.70
2022-08-12T04:27:09.470Z,2.45
2022-08-12T04:30:31.895Z,2.60
2022-08-12T04:32:25.770Z,2.40
2022-08-12T04:34:52.810Z,2.55
2022-08-12T04:37:19.880Z,2.67
2022-08-12T04:39:47.309Z,2.85
2022-08-12T04:42:14.315Z,2.80
2022-08-12T04:44:42.113Z,2.78
2022-08-12T04:47:15.178Z,2.90
2022-08-12T04:49:44.514Z,2.70
2022-08-12T04:52:11.235Z,2.92
2022-08-12T04:54:38.565Z,2.92
2022-08-12T04:57:06.013Z,2.70
2022-08-12T04:59:48.157Z,2.85
2022-08-12T05:02:21.613Z,2.67
2022-08-12T05:04:51.125Z,2.70
2022-08-12T05:07:18.064Z,2.80
2022-08-12T05:09:59.949Z,2.85
2022-08-12T05:12:34.087Z,2.42
2022-08-12T05:15:01.008Z,2.70
2022-08-12T05:17:28.237Z,2.65
2022-08-12T05:19:57.191Z,2.65
2022-08-12T05:22:27.616Z,3.10
2022-08-12T05:24:54.833Z,2.70
2022-08-12T05:27:22.775Z,3.00
2022-08-12T05:30:08.162Z,2.72
2022-08-12T05:32:36.411Z,2.72
2022-08-12T05:35:06.246Z,2.45
2022-08-12T05:37:36.082Z,2.53
2022-08-12T05:40:09.960Z,2.90
2022-08-12T05:42:37.755Z,2.60
2022-08-12T05:45:04.947Z,2.67
2022-08-12T05:47:44.883Z,2.50
2022-08-12T05:50:19.362Z,2.53
2022-08-12T05:52:46.029Z,2.20
2022-08-12T05:55:15.023Z,2.33
2022-08-12T05:57:41.676Z,2.47
2022-08-12T06:00:08.736Z,2.70
2022-08-12T06:02:35.654Z,2.50
2022-08-12T06:05:02.840Z,2.20
2022-08-12T06:07:59.970Z,2.63
2022-08-12T06:10:17.631Z,2.45
2022-08-12T06:12:59.158Z,2.60
2022-08-12T06:15:25.803Z,2.35
2022-08-12T06:17:52.842Z,2.40
2022-08-12T06:20:26.635Z,2.30
2022-08-12T06:22:55.382Z,2.05
2022-08-12T06:25:22.346Z,1.92
2022-08-12T06:28:06.769Z,2.20
2022-08-12T06:30:38.673Z,2.42
2022-08-12T06:33:18.475Z,2.30
2022-08-12T06:35:50.221Z,2.20
2022-08-12T06:38:23.061Z,2.50
2022-08-12T06:41:11.764Z,2.28
2022-08-12T06:44:04.933Z,2.35
2022-08-12T06:46:36.011Z,2.22
2022-08-12T06:49:02.688Z,2.55
2022-08-12T06:51:32.075Z,2.17
2022-08-12T06:54:00.864Z,2.33
2022-08-12T06:56:59.641Z,2.40
2022-08-12T06:59:21.125Z,2.00
2022-08-12T07:01:50.810Z,2.38
2022-08-12T07:04:36.898Z,2.15
2022-08-12T07:07:07.361Z,2.13
2022-08-12T07:10:01.168Z,2.67
2022-08-12T07:12:21.861Z,2.30
2022-08-12T07:14:51.721Z,2.10
2022-08-12T07:17:18.795Z,2.30
2022-08-12T07:19:47.045Z,2.53
2022-08-12T07:22:16.447Z,1.95
2022-08-12T07:24:43.224Z,2.00
2022-08-12T07:27:10.061Z,1.90
2022-08-12T07:29:57.958Z,1.80
2022-08-12T07:32:25.497Z,1.90
2022-08-12T07:34:56.835Z,1.63
2022-08-12T07:37:25.086Z,1.80
2022-08-12T07:40:00.280Z,1.70
2022-08-12T07:42:29.289Z,1.73
2022-08-12T07:44:56.377Z,1.95
2022-08-12T07:47:23.701Z,1.60
2022-08-12T07:50:03.273Z,1.83
2022-08-12T07:52:42.069Z,1.80
2022-08-12T07:55:10.272Z,1.92
2022-08-12T07:57:49.921Z,1.50
2022-08-12T08:00:30.493Z,1.63
2022-08-12T08:03:08.283Z,1.98
2022-08-12T08:05:54.624Z,1.83
2022-08-12T08:08:26.685Z,1.50
2022-08-12T08:11:17.851Z,1.83
2022-08-12T08:13:46.017Z,1.80
2022-08-12T08:16:15.185Z,1.90
2022-08-12T08:18:43.509Z,1.70
2022-08-12T08:21:10.997Z,1.77
2022-08-12T08:23:58.890Z,1.90
2022-08-12T08:26:32.558Z,1.98
2022-08-12T08:28:59.697Z,1.80
2022-08-12T08:31:26.338Z,1.80
2022-08-12T08:34:09.214Z,2.28
2022-08-12T08:36:41.759Z,1.60
2022-08-12T08:39:09.486Z,1.55
2022-08-12T08:42:17.302Z,1.80
2022-08-12T08:44:43.052Z,2.00
2022-08-12T08:47:13.389Z,1.70
2022-08-12T08:49:41.092Z,1.90
2022-08-12T08:52:10.640Z,1.75
2022-08-12T08:54:38.045Z,1.58
2022-08-12T08:57:08.111Z,1.73
2022-08-12T08:59:35.127Z,1.70
2022-08-12T09:02:02.528Z,1.60
2022-08-12T09:05:11.867Z,1.52
2022-08-12T09:07:51.022Z,1.73
2022-08-12T09:10:09.296Z,1.60
2022-08-12T09:13:08.602Z,2.15
2022-08-12T09:18:41.206Z,1.58
2022-08-12T09:21:15.510Z,1.60
2022-08-12T09:26:30.105Z,1.75
2022-08-12T09:28:58.055Z,1.60
2022-08-12T09:32:04.292Z,1.40
2022-08-12T09:34:25.242Z,1.35
2022-08-12T09:37:02.866Z,1.63
2022-08-12T09:40:05.114Z,1.45
2022-08-12T09:43:04.919Z,1.50
2022-08-12T09:46:20.332Z,1.50
2022-08-12T09:48:24.891Z,1.60
2022-08-12T09:50:55.187Z,1.60
2022-08-12T09:53:29.527Z,1.40
2022-08-12T09:57:00.627Z,1.45
2022-08-12T09:58:59.915Z,1.77
2022-08-12T10:01:35.265Z,1.45
2022-08-12T10:04:19.872Z,1.58
2022-08-12T10:06:54.358Z,1.63
2022-08-12T10:09:56.831Z,1.60
2022-08-12T10:12:32.863Z,1.50
2022-08-12T10:16:00.885Z,1.50
2022-08-12T10:18:06.885Z,1.60
2022-08-12T10:20:34.592Z,1.58
2022-08-12T10:23:01.940Z,1.30
2022-08-12T10:26:18.284Z,1.60
2022-08-12T10:29:02.567Z,1.50
2022-08-12T10:32:19.521Z,1.80
2022-08-12T10:34:25.885Z,1.35
2022-08-12T10:36:58.621Z,1.30
2022-08-12T10:40:01.942Z,1.42
2022-08-12T10:42:39.769Z,1.48
2022-08-12T10:45:14.344Z,1.50
2022-08-12T10:48:01.598Z,1.50
2022-08-12T10:50:58.614Z,1.30
2022-08-12T10:53:43.688Z,2.05
2022-08-12T10:56:09.413Z,1.42
2022-08-12T10:58:36.934Z,1.30
2022-08-12T11:01:49.097Z,1.40
2022-08-12T11:04:22.846Z,1.33
2022-08-12T11:07:05.237Z,1.38
2022-08-12T11:09:42.021Z,1.58
2022-08-12T11:12:55.254Z,1.50
2022-08-12T11:15:19.411Z,1.42
2022-08-12T11:17:53.829Z,1.48
2022-08-12T11:20:24.449Z,1.40
2022-08-12T11:23:04.316Z,1.15
2022-08-12T11:25:56.020Z,1.27
2022-08-12T11:28:34.685Z,1.20
2022-08-12T11:31:04.740Z,1.60
2022-08-12T11:34:04.319Z,1.30
2022-08-12T11:36:21.755Z,1.45
2022-08-12T11:38:50.471Z,1.55
2022-08-12T11:41:31.878Z,1.30
2022-08-12T11:44:35.529Z,1.60
2022-08-12T11:46:54.500Z,1.40
2022-08-12T11:49:31.189Z,1.10
2022-08-12T11:52:01.814Z,1.30
2022-08-12T11:54:29.664Z,1.48
2022-08-12T11:56:59.592Z,1.05
2022-08-12T12:02:20.593Z,1.10
2022-08-12T12:04:52.108Z,1.10
2022-08-12T12:08:36.247Z,1.13
2022-08-12T12:10:16.138Z,1.10
2022-08-12T12:12:50.086Z,0.90
2022-08-12T12:15:25.182Z,1.08
2022-08-12T12:17:55.883Z,0.82
2022-08-12T12:20:26.045Z,0.90
2022-08-12T12:22:57.202Z,1.10
2022-08-12T12:26:06.585Z,1.10
2022-08-12T12:28:36.789Z,1.00
2022-08-12T12:30:57.909Z,0.80
2022-08-12T12:33:26.237Z,1.00
2022-08-12T12:36:20.339Z,1.10
2022-08-12T12:38:49.789Z,0.80
2022-08-12T12:41:17.245Z,0.90
2022-08-12T12:43:44.986Z,1.00
2022-08-12T12:46:23.373Z,0.80
2022-08-12T12:48:50.056Z,1.10
2022-08-12T12:51:48.987Z,1.17
2022-08-12T12:54:06.144Z,0.93
2022-08-12T12:56:40.598Z,0.93
2022-08-12T12:59:56.390Z,1.27
2022-08-12T13:01:55.539Z,1.20
2022-08-12T13:04:22.487Z,1.10
2022-08-12T13:06:51.976Z,1.05
2022-08-12T13:09:22.102Z,1.20
2022-08-12T13:11:53.287Z,1.15
2022-08-12T13:14:28.100Z,1.10
2022-08-12T13:16:57.424Z,1.00
2022-08-12T13:19:36.588Z,1.00
2022-08-12T13:22:19.952Z,1.05
2022-08-12T13:24:55.685Z,1.10
2022-08-12T13:27:50.674Z,1.05
2022-08-12T13:30:20.366Z,0.90
2022-08-12T13:32:58.713Z,1.10
2022-08-12T13:35:33.292Z,1.00
2022-08-12T13:38:02.660Z,1.00
2022-08-12T13:40:33.137Z,1.20
2022-08-12T13:43:01.730Z,1.25
2022-08-12T13:45:30.970Z,1.33
2022-08-12T13:48:02.029Z,1.08
2022-08-12T13:50:32.731Z,1.10
2022-08-12T13:53:23.163Z,1.10
2022-08-12T13:55:59.335Z,1.10
2022-08-12T13:58:28.340Z,1.20
2022-08-12T14:00:58.097Z,1.60
2022-08-12T14:03:28.588Z,1.50
2022-08-12T14:06:15.584Z,1.70
2022-08-12T14:08:43.159Z,1.40
2022-08-12T14:11:12.497Z,1.17
2022-08-12T14:14:05.978Z,1.00
2022-08-12T14:16:37.916Z,1.35
2022-08-12T14:19:24.241Z,1.30
2022-08-12T14:21:59.595Z,1.33
2022-08-12T14:24:31.483Z,1.30
2022-08-12T14:27:01.973Z,1.10
2022-08-12T14:29:38.114Z,1.20
2022-08-12T14:32:17.360Z,1.10
2022-08-12T14:34:47.213Z,1.00
2022-08-12T14:37:55.440Z,1.10
2022-08-12T14:40:01.140Z,1.40
2022-08-12T14:42:54.419Z,1.10
2022-08-12T14:45:23.022Z,1.05
2022-08-12T14:47:53.636Z,1.20
2022-08-12T14:50:58.743Z,1.30
2022-08-12T14:55:18.159Z,1.05
2022-08-12T14:59:23.422Z,1.17
2022-08-12T15:01:52.028Z,1.20
2022-08-12T15:04:28.677Z,1.15
2022-08-12T15:06:56.114Z,1.20
2022-08-12T15:09:29.255Z,1.00
2022-08-12T15:12:03.296Z,1.00
2022-08-12T15:14:32.109Z,1.10
2022-08-12T15:17:02.588Z,1.20
2022-08-12T15:20:28.500Z,1.20
2022-08-12T15:22:37.479Z,1.25
2022-08-12T15:25:07.544Z,1.00
2022-08-12T15:28:10.929Z,1.10
2022-08-12T15:30:30.762Z,1.00
2022-08-12T15:32:57.591Z,1.08
2022-08-12T15:35:38.147Z,1.10
2022-08-12T15:38:19.455Z,1.30
2022-08-12T15:40:55.441Z,1.25
2022-08-12T15:44:14.103Z,1.00
2022-08-12T15:46:15.951Z,1.33
2022-08-12T15:48:47.605Z,1.20
2022-08-12T15:51:58.480Z,1.27
2022-08-12T15:54:33.276Z,1.30
2022-08-12T15:57:05.529Z,1.13
2022-08-12T16:00:00.777Z,1.10
2022-08-12T16:02:19.695Z,1.17
2022-08-12T16:04:50.313Z,1.20
2022-08-12T16:07:26.041Z,1.15
2022-08-12T16:10:08.508Z,1.33
2022-08-12T16:12:42.063Z,1.30
2022-08-12T16:15:15.100Z,1.30
2022-08-12T16:18:15.039Z,1.55
2022-08-12T16:20:33.987Z,0.98
2022-08-12T16:23:35.868Z,1.20
2022-08-12T16:26:05.234Z,1.00
2022-08-12T16:28:33.566Z,1.00
2022-08-12T16:31:01.937Z,1.20
2022-08-12T16:33:59.763Z,1.15
2022-08-12T16:36:25.466Z,1.15
2022-08-12T16:38:52.342Z,1.20
2022-08-12T16:41:19.021Z,1.20
2022-08-12T16:43:46.599Z,1.50
2022-08-12T16:46:31.432Z,1.08
2022-08-12T16:49:04.115Z,1.00
2022-08-12T16:51:40.497Z,1.25
2022-08-12T16:54:12.714Z,1.35
2022-08-12T16:56:50.953Z,1.10
2022-08-12T16:59:21.787Z,1.30
2022-08-12T17:01:49.556Z,1.15
2022-08-12T17:04:17.495Z,1.27
2022-08-12T17:06:47.919Z,1.13
2022-08-12T17:09:16.914Z,1.33
2022-08-12T17:11:49.385Z,1.13
2022-08-12T17:14:20.327Z,1.40
2022-08-12T17:16:51.843Z,1.30
2022-08-12T17:19:20.611Z,1.17
2022-08-12T17:22:09.711Z,1.00
2022-08-12T17:24:43.754Z,1.30
2022-08-12T17:27:15.858Z,1.00
2022-08-12T17:30:02.630Z,1.20
2022-08-12T17:32:33.546Z,1.30
2022-08-12T17:35:19.765Z,1.00
2022-08-12T17:37:48.588Z,1.30
2022-08-12T17:40:34.729Z,1.10
2022-08-12T17:43:57.703Z,1.23
2022-08-12T17:45:59.054Z,1.30
2022-08-12T17:48:34.306Z,1.30
2022-08-12T17:51:06.848Z,1.10
2022-08-12T17:54:05.487Z,1.00
2022-08-12T17:56:23.322Z,1.25
2022-08-12T17:58:58.675Z,1.20
2022-08-12T18:01:25.808Z,1.15
2022-08-12T18:04:21.595Z,1.40
2022-08-12T18:06:49.181Z,1.38
2022-08-12T18:09:17.793Z,0.95
2022-08-12T18:12:07.946Z,1.20
2022-08-12T18:14:38.154Z,1.17
2022-08-12T18:17:09.784Z,1.08
2022-08-12T18:20:05.283Z,1.10
2022-08-12T18:22:40.768Z,1.30
2022-08-12T18:26:11.537Z,1.23
2022-08-12T18:28:16.009Z,1.27
2022-08-12T18:30:52.390Z,1.30
2022-08-12T18:33:24.852Z,1.10
2022-08-12T18:35:55.662Z,1.30
2022-08-12T18:38:25.361Z,1.33
2022-08-12T18:41:21.777Z,1.50
2022-08-12T18:44:10.570Z,1.30
2022-08-12T18:46:47.425Z,1.33
2022-08-12T18:49:21.592Z,1.30
2022-08-12T18:52:02.362Z,1.20
2022-08-12T18:54:35.482Z,1.20
2022-08-12T18:57:19.454Z,1.50
2022-08-12T19:00:02.130Z,1.55
2022-08-12T19:02:36.129Z,1.20
2022-08-12T19:05:10.146Z,1.30
2022-08-12T19:07:58.124Z,1.40
2022-08-12T19:10:29.991Z,1.40
2022-08-12T19:13:21.093Z,1.30
2022-08-12T19:15:53.173Z,1.27
2022-08-12T19:18:22.147Z,1.38
2022-08-12T19:20:50.734Z,1.10
2022-08-12T19:23:20.952Z,1.45
2022-08-12T19:25:59.634Z,1.20
2022-08-12T19:28:34.973Z,1.60
2022-08-12T19:31:56.252Z,1.50
2022-08-12T19:35:32.908Z,1.27
2022-08-12T19:38:03.077Z,1.40
2022-08-12T19:40:32.668Z,1.60
2022-08-12T19:43:19.495Z,1.45
2022-08-12T19:45:56.558Z,1.40
2022-08-12T19:48:27.879Z,1.20
2022-08-12T19:50:57.897Z,1.50
2022-08-12T19:53:27.647Z,1.30
2022-08-12T19:55:56.247Z,1.48
2022-08-12T19:58:26.972Z,1.50
2022-08-12T20:00:55.348Z,1.38
2022-08-12T20:03:38.907Z,1.60
2022-08-12T20:06:13.826Z,1.58
2022-08-12T20:08:48.849Z,1.40
2022-08-12T20:12:13.147Z,1.77
2022-08-12T20:14:09.665Z,1.83
2022-08-12T20:19:52.531Z,1.60
2022-08-12T20:22:24.439Z,1.60
2022-08-12T20:25:01.661Z,1.60
2022-08-12T20:28:03.007Z,1.35
2022-08-12T20:30:52.569Z,1.70
2022-08-12T20:33:18.575Z,1.52
2022-08-12T20:36:06.628Z,1.70
2022-08-12T20:38:37.228Z,1.67
2022-08-12T20:41:14.805Z,1.95
2022-08-12T20:43:43.969Z,2.05
2022-08-12T20:46:13.328Z,1.55
2022-08-12T20:48:44.240Z,1.67
2022-08-12T20:51:15.835Z,1.63
2022-08-12T20:53:54.301Z,1.80
2022-08-12T20:56:31.181Z,1.50
2022-08-12T20:58:59.815Z,1.45
2022-08-12T21:01:36.525Z,1.45
2022-08-12T21:04:31.797Z,1.77
2022-08-12T21:07:04.595Z,1.52
2022-08-12T21:09:44.120Z,1.65
2022-08-12T21:12:27.700Z,1.58
2022-08-12T21:15:17.472Z,1.80
2022-08-12T21:18:09.224Z,1.67
2022-08-12T21:20:43.113Z,1.73
2022-08-12T21:23:10.559Z,1.63
2022-08-12T21:25:44.231Z,1.63
2022-08-12T21:28:12.630Z,1.67
2022-08-12T21:31:10.899Z,1.60
2022-08-12T21:33:31.601Z,1.90
2022-08-12T21:36:00.926Z,1.30
2022-08-12T21:38:34.279Z,1.70
2022-08-12T21:41:07.008Z,1.98
2022-08-12T21:43:44.798Z,1.80
2022-08-12T21:46:35.327Z,1.95
2022-08-12T21:49:04.772Z,1.90
2022-08-12T21:51:49.017Z,1.60
2022-08-12T21:54:22.023Z,1.80
2022-08-12T21:56:52.937Z,1.60
2022-08-12T21:59:21.867Z,1.80
2022-08-12T22:01:49.610Z,2.05
2022-08-12T22:04:36.870Z,2.10
2022-08-12T22:07:06.812Z,1.85
2022-08-12T22:09:42.761Z,1.98
2022-08-12T22:12:29.014Z,1.95
2022-08-12T22:14:55.847Z,1.95
2022-08-12T22:17:33.684Z,1.90
2022-08-12T22:20:01.860Z,1.70
2022-08-12T22:22:34.136Z,2.13
2022-08-12T22:25:01.067Z,1.80
2022-08-12T22:27:32.335Z,1.67
2022-08-12T22:30:20.086Z,1.83
2022-08-12T22:32:51.513Z,1.65
2022-08-12T22:35:56.051Z,1.80
2022-08-12T22:38:26.670Z,1.67
2022-08-12T22:41:00.701Z,1.80
2022-08-12T22:44:00.982Z,1.83
2022-08-12T22:46:32.970Z,1.65
2022-08-12T22:49:00.115Z,1.80
2022-08-12T22:51:30.357Z,1.75
2022-08-12T22:54:36.033Z,1.67
2022-08-12T22:57:05.073Z,1.60
2022-08-12T22:59:51.432Z,1.80
2022-08-12T23:02:28.774Z,1.63
2022-08-12T23:04:58.080Z,1.63
2022-08-12T23:07:24.761Z,1.77
2022-08-12T23:09:51.834Z,1.73
2022-08-12T23:12:46.606Z,1.80
2022-08-12T23:15:14.358Z,2.00
2022-08-12T23:17:41.765Z,1.90
2022-08-12T23:20:11.048Z,1.85
2022-08-12T23:22:38.529Z,2.00
2022-08-12T23:25:07.956Z,2.20
2022-08-12T23:28:06.400Z,1.70
2022-08-12T23:30:58.595Z,2.10
2022-08-12T23:34:00.229Z,1.67
2022-08-12T23:36:31.894Z,1.83
2022-08-12T23:40:13.261Z,1.45
2022-08-12T23:42:17.654Z,1.75
2022-08-12T23:44:47.070Z,1.60
2022-08-12T23:47:16.228Z,1.80
2022-08-12T23:49:56.207Z,1.90
2022-08-12T23:52:28.546Z,1.52
2022-08-12T23:55:05.045Z,1.83
2022-08-12T23:58:18.064Z,1.60
